createdAt,value
2023-05-15T00:00:00.916Z,79.88
2023-05-15T00:02:28.254Z,79.05
2023-05-15T00:04:55.472Z,78.59
2023-05-15T00:07:22.702Z,78.15
2023-05-15T00:09:49.792Z,78.62
2023-05-15T00:12:16.893Z,78.80
2023-05-15T00:14:43.996Z,79.32
2023-05-15T00:17:12.609Z,79.88
2023-05-15T00:19:39.760Z,80.65
2023-05-15T00:22:06.940Z,81.18
2023-05-15T00:24:34.380Z,81.11
2023-05-15T00:27:01.930Z,80.00
2023-05-15T00:29:30.828Z,80.06
2023-05-15T00:31:57.999Z,80.91
2023-05-15T00:34:26.127Z,82.17
2023-05-15T00:36:53.212Z,82.51
2023-05-15T00:39:20.412Z,80.90
2023-05-15T00:41:50.124Z,81.45
2023-05-15T00:44:19.281Z,81.81
2023-05-15T00:46:47.243Z,81.97
2023-05-15T00:49:14.780Z,82.12
2023-05-15T00:51:42.697Z,81.79
2023-05-15T00:54:11.339Z,81.85
2023-05-15T00:56:39.461Z,82.22
2023-05-15T00:59:07.782Z,81.47
2023-05-15T01:01:35.288Z,80.92
2023-05-15T01:04:04.357Z,80.53
2023-05-15T01:06:32.252Z,79.77
2023-05-15T01:09:04.620Z,78.57
2023-05-15T01:11:36.412Z,76.61
2023-05-15T01:14:08.451Z,76.32
2023-05-15T01:16:36.515Z,76.41
2023-05-15T01:19:05.141Z,75.64
2023-05-15T01:21:35.200Z,75.86
2023-05-15T01:24:35.555Z,75.61
2023-05-15T01:27:26.245Z,75.70
2023-05-15T01:30:03.992Z,76.52
2023-05-15T01:32:38.251Z,77.13
2023-05-15T01:35:05.474Z,76.10
2023-05-15T01:37:37.133Z,74.79
2023-05-15T01:40:09.469Z,74.99
2023-05-15T01:42:42.246Z,75.04
2023-05-15T01:45:12.029Z,75.07
2023-05-15T01:47:44.155Z,75.25
2023-05-15T01:50:15.285Z,74.83
2023-05-15T01:52:49.472Z,75.66
2023-05-15T01:55:19.382Z,76.35
2023-05-15T01:57:49.172Z,76.63
2023-05-15T02:00:17.351Z,78.07
2023-05-15T02:02:46.184Z,78.84
2023-05-15T02:05:14.378Z,78.54
2023-05-15T02:07:44.117Z,78.55
2023-05-15T02:10:15.531Z,79.11
2023-05-15T02:12:47.193Z,79.75
2023-05-15T02:15:15.776Z,80.30
2023-05-15T02:17:43.023Z,80.67
2023-05-15T02:20:10.384Z,81.27
2023-05-15T02:22:38.409Z,81.90
2023-05-15T02:25:06.408Z,82.26
2023-05-15T02:27:51.905Z,82.57
2023-05-15T02:30:37.247Z,84.43
2023-05-15T02:33:19.746Z,84.67
2023-05-15T02:36:11.546Z,84.12
2023-05-15T02:38:49.389Z,84.21
2023-05-15T02:41:17.653Z,84.10
2023-05-15T02:43:45.960Z,84.58
2023-05-15T02:46:14.922Z,85.15
2023-05-15T02:48:43.663Z,84.26
2023-05-15T02:51:10.987Z,85.05
2023-05-15T02:53:42.415Z,85.26
2023-05-15T02:56:10.285Z,86.36
2023-05-15T02:58:38.915Z,86.02
2023-05-15T03:01:07.120Z,84.81
2023-05-15T03:03:34.385Z,85.09
2023-05-15T03:06:01.660Z,85.72
2023-05-15T03:08:29.102Z,85.75
2023-05-15T03:10:56.261Z,85.48
2023-05-15T03:13:23.433Z,85.46
2023-05-15T03:15:50.721Z,84.79
2023-05-15T03:18:19.143Z,84.75
2023-05-15T03:20:49.254Z,85.73
2023-05-15T03:23:16.412Z,85.56
2023-05-15T03:25:43.516Z,85.36
2023-05-15T03:28:11.738Z,85.37
2023-05-15T03:30:38.850Z,85.02
2023-05-15T03:33:06.788Z,86.12
2023-05-15T03:35:33.963Z,86.36
2023-05-15T03:38:02.307Z,86.14
2023-05-15T03:40:29.440Z,85.54
2023-05-15T03:42:58.466Z,85.78
2023-05-15T03:45:26.151Z,85.10
2023-05-15T03:47:53.568Z,85.86
2023-05-15T03:50:20.756Z,86.14
2023-05-15T03:52:47.927Z,86.01
2023-05-15T03:55:15.208Z,86.19
2023-05-15T03:57:42.414Z,85.90
2023-05-15T04:00:11.125Z,84.81
2023-05-15T04:02:41.475Z,84.34
2023-05-15T04:05:09.685Z,84.72
2023-05-15T04:07:37.334Z,84.91
2023-05-15T04:10:05.660Z,84.99
2023-05-15T04:12:34.354Z,84.59
2023-05-15T04:15:21.664Z,84.96
2023-05-15T04:17:51.168Z,85.13
2023-05-15T04:20:23.498Z,84.32
2023-05-15T04:22:51.371Z,82.95
2023-05-15T04:25:20.392Z,82.21
2023-05-15T04:27:47.726Z,81.59
2023-05-15T04:30:15.017Z,81.04
2023-05-15T04:32:42.913Z,80.99
2023-05-15T04:35:12.232Z,79.00
2023-05-15T04:37:40.741Z,79.29
2023-05-15T04:40:09.440Z,79.38
2023-05-15T04:42:39.121Z,79.26
2023-05-15T04:45:07.869Z,78.48
2023-05-15T04:47:35.693Z,79.04
2023-05-15T04:50:03.515Z,80.63
2023-05-15T04:52:30.940Z,80.31
2023-05-15T04:54:58.118Z,78.38
2023-05-15T04:57:26.022Z,78.19
2023-05-15T04:59:53.242Z,78.63
2023-05-15T05:02:22.737Z,78.66
2023-05-15T05:04:50.189Z,78.94
2023-05-15T05:07:17.516Z,79.65
2023-05-15T05:09:44.793Z,79.94
2023-05-15T05:12:12.056Z,79.06
2023-05-15T05:14:40.844Z,78.85
2023-05-15T05:17:08.215Z,79.25
2023-05-15T05:19:35.305Z,78.66
2023-05-15T05:22:05.599Z,77.03
2023-05-15T05:24:33.196Z,76.33
2023-05-15T05:27:00.526Z,76.20
2023-05-15T05:29:27.818Z,75.81
2023-05-15T05:31:55.069Z,76.23
2023-05-15T05:34:22.856Z,74.21
2023-05-15T05:36:50.148Z,74.98
2023-05-15T05:39:17.712Z,73.49
2023-05-15T05:41:45.116Z,73.07
2023-05-15T05:44:12.261Z,70.88
2023-05-15T05:46:39.386Z,70.80
2023-05-15T05:49:06.530Z,69.55
2023-05-15T05:51:36.917Z,68.05
2023-05-15T05:54:04.286Z,67.22
2023-05-15T05:56:31.573Z,67.35
2023-05-15T05:59:01.928Z,68.73
2023-05-15T06:01:29.640Z,69.62
2023-05-15T06:03:57.661Z,68.90
2023-05-15T06:06:24.971Z,67.26
2023-05-15T06:08:54.191Z,67.10
2023-05-15T06:11:25.157Z,66.49
2023-05-15T06:13:52.862Z,65.98
2023-05-15T06:16:20.544Z,67.61
2023-05-15T06:18:47.773Z,67.12
2023-05-15T06:21:14.979Z,63.93
2023-05-15T06:23:42.087Z,63.18
2023-05-15T06:26:09.436Z,63.31
2023-05-15T06:28:36.617Z,63.58
2023-05-15T06:31:03.935Z,63.65
2023-05-15T06:33:31.523Z,61.76
2023-05-15T06:35:58.660Z,60.62
2023-05-15T06:38:25.757Z,60.02
2023-05-15T06:40:52.937Z,60.12
2023-05-15T06:43:20.105Z,59.76
2023-05-15T06:45:47.265Z,58.45
2023-05-15T06:48:14.506Z,60.18
2023-05-15T06:50:41.709Z,58.00
2023-05-15T06:53:09.220Z,56.35
2023-05-15T06:55:38.204Z,56.96
2023-05-15T06:58:05.725Z,55.40
2023-05-15T07:00:33.115Z,54.58
2023-05-15T07:03:00.339Z,55.67
2023-05-15T07:05:27.733Z,54.63
2023-05-15T07:07:55.065Z,53.72
2023-05-15T07:10:22.302Z,53.26
2023-05-15T07:12:52.486Z,54.59
2023-05-15T07:15:19.696Z,53.22
2023-05-15T07:17:46.937Z,52.33
2023-05-15T07:20:14.181Z,51.59
2023-05-15T07:22:51.952Z,51.40
2023-05-15T07:25:22.897Z,50.75
2023-05-15T07:27:50.228Z,51.80
2023-05-15T07:30:17.391Z,51.48
2023-05-15T07:32:44.779Z,51.86
2023-05-15T07:35:11.984Z,52.70
2023-05-15T07:37:39.391Z,53.59
2023-05-15T07:40:07.682Z,52.55
2023-05-15T07:42:34.913Z,51.79
2023-05-15T07:45:02.204Z,53.02
2023-05-15T07:47:29.430Z,55.40
2023-05-15T07:49:56.915Z,52.53
2023-05-15T07:52:24.007Z,50.88
2023-05-15T07:54:51.431Z,52.73
2023-05-15T07:57:18.545Z,50.48
2023-05-15T07:59:45.728Z,50.07
2023-05-15T08:02:12.842Z,48.54
2023-05-15T08:04:40.002Z,48.41
2023-05-15T08:07:07.633Z,49.77
2023-05-15T08:09:34.742Z,50.88
2023-05-15T08:12:21.463Z,49.68
2023-05-15T08:14:52.856Z,51.31
2023-05-15T08:17:20.971Z,50.90
2023-05-15T08:19:49.013Z,50.36
2023-05-15T08:22:16.360Z,51.00
2023-05-15T08:24:43.668Z,51.58
2023-05-15T08:27:10.932Z,50.03
2023-05-15T08:29:39.704Z,49.64
2023-05-15T08:32:10.569Z,51.46
2023-05-15T08:34:38.926Z,49.13
2023-05-15T08:37:07.107Z,49.58
2023-05-15T08:39:34.240Z,48.87
2023-05-15T08:42:06.421Z,47.19
2023-05-15T08:44:33.829Z,47.00
2023-05-15T08:47:01.364Z,48.17
2023-05-15T08:50:05.744Z,46.45
2023-05-15T08:52:33.776Z,45.82
2023-05-15T08:55:02.218Z,46.33
2023-05-15T08:57:30.204Z,44.88
2023-05-15T08:59:58.051Z,46.94
2023-05-15T09:02:26.305Z,46.10
2023-05-15T09:04:53.515Z,45.31
2023-05-15T09:07:21.172Z,44.08
2023-05-15T09:09:48.531Z,43.16
2023-05-15T09:12:16.677Z,42.73
2023-05-15T09:14:44.429Z,43.90
2023-05-15T09:17:12.120Z,44.54
2023-05-15T09:19:40.493Z,45.28
2023-05-15T09:22:21.092Z,45.10
2023-05-15T09:24:48.541Z,46.05
2023-05-15T09:27:15.664Z,44.88
2023-05-15T09:29:42.914Z,46.68
2023-05-15T09:32:12.017Z,44.38
2023-05-15T09:34:41.230Z,44.97
2023-05-15T09:37:11.452Z,42.97
2023-05-15T09:39:43.179Z,43.76
2023-05-15T09:42:13.246Z,41.78
2023-05-15T09:44:44.608Z,42.42
2023-05-15T10:18:05.074Z,43.42
2023-05-15T10:20:35.766Z,42.28
2023-05-15T10:23:06.133Z,42.73
2023-05-15T10:26:01.069Z,42.32
2023-05-15T10:28:29.487Z,41.63
2023-05-15T10:31:01.621Z,40.84
2023-05-15T10:33:29.934Z,41.53
2023-05-15T10:35:58.760Z,41.26
2023-05-15T10:38:26.832Z,40.67
2023-05-15T10:41:09.165Z,40.56
2023-05-15T10:43:44.519Z,40.30
2023-05-15T10:46:12.357Z,42.13
2023-05-15T10:48:40.379Z,39.89
2023-05-15T10:51:16.753Z,41.08
2023-05-15T10:53:44.356Z,40.26
2023-05-15T10:56:16.797Z,41.04
2023-05-15T10:58:51.307Z,40.71
2023-05-15T11:01:32.713Z,42.10
2023-05-15T11:04:15.827Z,43.47
2023-05-15T11:06:44.093Z,44.96
2023-05-15T11:09:38.442Z,43.83
2023-05-15T11:12:12.466Z,44.01
2023-05-15T11:14:42.402Z,42.86
2023-05-15T11:17:15.677Z,44.63
2023-05-15T11:19:52.113Z,44.47
2023-05-15T11:22:26.497Z,44.35
2023-05-15T11:25:06.958Z,43.58
2023-05-15T11:27:40.534Z,44.38
2023-05-15T11:30:08.099Z,42.92
2023-05-15T11:32:47.393Z,42.60
2023-05-15T11:35:18.630Z,42.97
2023-05-15T11:37:59.981Z,43.06
2023-05-15T11:40:29.375Z,42.83
2023-05-15T11:43:01.014Z,41.95
2023-05-15T11:45:31.220Z,41.35
2023-05-15T11:48:02.563Z,41.88
2023-05-15T11:50:32.349Z,41.77
2023-05-15T11:53:04.218Z,40.76
2023-05-15T11:55:33.513Z,41.49
2023-05-15T11:58:01.236Z,40.19
2023-05-15T12:00:28.578Z,40.39
2023-05-15T12:02:56.329Z,40.36
2023-05-15T12:05:23.963Z,38.61
2023-05-15T12:07:51.292Z,40.42
2023-05-15T12:10:18.553Z,41.55
2023-05-15T12:12:46.601Z,43.20
2023-05-15T12:15:15.744Z,41.83
2023-05-15T12:17:44.553Z,42.59
2023-05-15T12:20:17.050Z,43.91
2023-05-15T12:22:45.072Z,43.34
2023-05-15T12:25:14.948Z,44.03
2023-05-15T12:27:42.760Z,43.47
2023-05-15T12:30:11.496Z,43.98
2023-05-15T12:32:39.525Z,45.56
2023-05-15T12:35:06.912Z,44.00
2023-05-15T12:37:36.602Z,45.23
2023-05-15T12:40:11.960Z,45.15
2023-05-15T12:42:45.982Z,46.51
2023-05-15T12:45:17.588Z,46.52
2023-05-15T12:47:46.575Z,46.58
2023-05-15T12:50:17.643Z,45.96
2023-05-15T12:52:53.706Z,46.91
2023-05-15T12:55:29.136Z,47.19
2023-05-15T12:58:02.458Z,48.57
2023-05-15T13:00:30.760Z,47.76
2023-05-15T13:02:58.885Z,48.24
2023-05-15T13:05:27.654Z,48.69
2023-05-15T13:07:55.457Z,48.85
2023-05-15T13:10:24.100Z,46.92
2023-05-15T13:12:56.380Z,46.47
2023-05-15T13:15:29.638Z,48.26
2023-05-15T13:18:04.293Z,47.12
2023-05-15T13:20:36.828Z,46.45
2023-05-15T13:23:04.689Z,46.22
2023-05-15T13:25:32.233Z,46.05
2023-05-15T13:28:04.848Z,44.77
2023-05-15T13:30:35.949Z,44.28
2023-05-15T13:33:03.301Z,45.72
2023-05-15T13:35:30.843Z,45.38
2023-05-15T13:37:58.043Z,43.62
2023-05-15T13:40:26.278Z,44.22
2023-05-15T13:42:53.972Z,42.95
2023-05-15T13:45:21.105Z,43.64
2023-05-15T13:47:48.286Z,42.43
2023-05-15T13:50:16.303Z,43.87
2023-05-15T13:52:44.940Z,43.53
2023-05-15T13:55:12.202Z,43.76
2023-05-15T13:57:41.275Z,44.65
2023-05-15T14:00:13.685Z,44.97
2023-05-15T14:02:43.230Z,44.18
2023-05-15T14:05:13.993Z,44.88
2023-05-15T14:07:42.122Z,44.99
2023-05-15T14:10:09.753Z,44.84
2023-05-15T14:12:37.899Z,44.39
2023-05-15T14:15:05.457Z,44.41
2023-05-15T14:17:32.573Z,44.99
2023-05-15T14:19:59.732Z,45.31
2023-05-15T14:22:26.960Z,43.90
2023-05-15T14:24:54.268Z,44.93
2023-05-15T14:27:21.415Z,45.09
2023-05-15T14:29:49.472Z,45.88
2023-05-15T14:32:17.444Z,46.88
2023-05-15T14:34:44.781Z,46.55
2023-05-15T14:37:12.259Z,47.14
2023-05-15T14:39:39.699Z,46.55
2023-05-15T14:42:07.384Z,46.43
2023-05-15T14:44:35.263Z,47.02
2023-05-15T14:47:07.513Z,46.89
2023-05-15T14:49:35.944Z,47.35
2023-05-15T14:52:04.450Z,46.49
2023-05-15T14:54:32.292Z,46.65
2023-05-15T14:56:59.548Z,46.67
2023-05-15T14:59:28.251Z,47.78
2023-05-15T15:01:55.537Z,48.32
2023-05-15T15:04:22.732Z,48.29
2023-05-15T15:06:50.238Z,48.03
2023-05-15T15:09:19.504Z,48.46
2023-05-15T15:11:48.067Z,49.01
2023-05-15T15:14:15.239Z,49.96
2023-05-15T15:16:44.346Z,49.27
2023-05-15T15:19:11.732Z,48.44
2023-05-15T15:21:38.881Z,50.23
2023-05-15T15:24:06.309Z,50.63
2023-05-15T15:26:33.518Z,49.82
2023-05-15T15:29:03.660Z,49.70
2023-05-15T15:31:31.218Z,50.38
2023-05-15T15:33:58.765Z,50.17
2023-05-15T15:36:26.256Z,50.83
2023-05-15T15:38:53.436Z,49.82
2023-05-15T15:41:23.697Z,50.83
2023-05-15T15:43:50.860Z,51.01
2023-05-15T15:46:18.050Z,50.84
2023-05-15T15:48:45.345Z,51.06
2023-05-15T15:51:12.565Z,50.30
2023-05-15T15:53:39.826Z,50.61
2023-05-15T15:56:07.751Z,50.93
2023-05-15T15:58:34.842Z,50.47
2023-05-15T16:01:03.133Z,49.38
2023-05-15T16:03:31.168Z,50.02
2023-05-15T16:06:00.143Z,49.83
2023-05-15T16:08:27.670Z,50.44
2023-05-15T16:10:55.238Z,50.74
2023-05-15T16:13:22.439Z,50.98
2023-05-15T16:15:49.600Z,51.95
2023-05-15T16:18:16.803Z,51.40
2023-05-15T16:20:43.991Z,51.17
2023-05-15T16:23:14.293Z,51.53
2023-05-15T16:25:42.189Z,51.53
2023-05-15T16:28:10.183Z,52.24
2023-05-15T16:30:48.168Z,52.50
2023-05-15T16:33:18.131Z,51.87
2023-05-15T16:35:45.817Z,51.28
2023-05-15T16:38:13.882Z,51.95
2023-05-15T16:40:41.402Z,51.88
2023-05-15T16:43:08.848Z,51.81
2023-05-15T16:45:35.964Z,52.26
2023-05-15T16:48:03.152Z,53.22
2023-05-15T16:50:32.377Z,52.15
2023-05-15T16:52:59.741Z,51.19
2023-05-15T16:55:27.453Z,51.53
2023-05-15T16:57:54.826Z,52.04
2023-05-15T17:00:22.869Z,51.56
2023-05-15T17:02:50.822Z,52.56
2023-05-15T17:05:18.127Z,52.32
2023-05-15T17:07:45.397Z,50.16
2023-05-15T17:10:13.159Z,50.08
2023-05-15T17:12:40.434Z,50.57
2023-05-15T17:15:08.026Z,50.65
2023-05-15T17:17:35.214Z,50.65
2023-05-15T17:20:03.564Z,51.36
2023-05-15T17:22:30.702Z,52.37
2023-05-15T17:24:58.175Z,51.78
2023-05-15T17:27:25.332Z,52.20
2023-05-15T17:29:52.465Z,52.53
2023-05-15T17:32:19.968Z,53.26
2023-05-15T17:34:47.355Z,52.28
2023-05-15T17:37:15.003Z,51.92
2023-05-15T17:39:42.962Z,52.89
2023-05-15T17:42:10.106Z,52.33
2023-05-15T17:44:37.158Z,51.03
2023-05-15T17:47:04.511Z,49.97
2023-05-15T17:49:34.163Z,48.28
2023-05-15T17:52:01.352Z,47.99
2023-05-15T17:54:28.587Z,48.62
2023-05-15T17:56:55.685Z,49.25
2023-05-15T17:59:22.796Z,48.87
2023-05-15T18:01:49.955Z,49.09
2023-05-15T18:04:17.296Z,49.63
2023-05-15T18:06:44.568Z,50.20
2023-05-15T18:09:11.973Z,50.74
2023-05-15T18:11:39.072Z,51.47
2023-05-15T18:14:06.670Z,52.18
2023-05-15T18:16:33.804Z,52.31
2023-05-15T18:19:01.585Z,52.43
2023-05-15T18:21:28.976Z,52.58
2023-05-15T18:23:56.171Z,52.66
2023-05-15T18:26:23.698Z,53.34
2023-05-15T18:28:50.898Z,52.76
2023-05-15T18:31:18.032Z,53.39
2023-05-15T18:33:45.218Z,53.61
2023-05-15T18:36:12.313Z,54.82
2023-05-15T18:38:39.608Z,54.90
2023-05-15T18:41:06.829Z,54.94
2023-05-15T18:43:33.942Z,56.53
2023-05-15T18:46:01.255Z,58.83
2023-05-15T18:48:28.543Z,61.33
2023-05-15T18:50:56.031Z,63.01
2023-05-15T18:53:23.128Z,65.06
2023-05-15T18:55:50.253Z,65.08
2023-05-15T18:58:17.298Z,65.20
2023-05-15T19:00:44.483Z,65.85
2023-05-15T19:03:11.791Z,65.63
2023-05-15T19:05:38.980Z,66.84
2023-05-15T19:08:07.347Z,66.07
2023-05-15T19:10:34.478Z,66.44
2023-05-15T19:13:01.610Z,68.15
2023-05-15T19:15:28.921Z,67.71
2023-05-15T19:17:56.216Z,67.25
2023-05-15T19:20:23.631Z,67.06
2023-05-15T19:22:51.001Z,66.61
2023-05-15T19:25:18.078Z,66.52
2023-05-15T19:27:45.292Z,66.85
2023-05-15T19:30:12.704Z,66.33
2023-05-15T19:32:39.938Z,66.19
2023-05-15T19:35:07.302Z,66.15
2023-05-15T19:37:34.398Z,66.07
2023-05-15T19:40:01.602Z,66.74
2023-05-15T19:42:28.716Z,66.71
2023-05-15T19:44:55.943Z,67.55
2023-05-15T19:47:23.098Z,66.78
2023-05-15T19:49:50.327Z,67.59
2023-05-15T19:52:17.520Z,67.97
2023-05-15T19:54:44.668Z,68.60
2023-05-15T19:57:11.796Z,68.85
2023-05-15T19:59:38.893Z,69.60
2023-05-15T20:02:10.482Z,70.61
2023-05-15T20:04:37.955Z,71.08
2023-05-15T20:07:05.720Z,71.91
2023-05-15T20:09:32.872Z,72.25
2023-05-15T20:12:00.097Z,71.93
2023-05-15T20:14:27.217Z,71.93
2023-05-15T20:16:54.296Z,72.16
2023-05-15T20:19:22.414Z,72.84
2023-05-15T20:21:50.046Z,74.57
2023-05-15T20:24:18.178Z,74.46
2023-05-15T20:26:45.701Z,75.06
2023-05-15T20:29:12.891Z,75.33
2023-05-15T20:31:40.669Z,75.98
2023-05-15T20:34:08.619Z,75.62
2023-05-15T20:36:38.968Z,75.37
2023-05-15T20:39:07.502Z,75.24
2023-05-15T20:41:34.915Z,75.77
2023-05-15T20:44:02.261Z,76.67
2023-05-15T20:46:30.729Z,77.34
2023-05-15T20:48:57.992Z,77.77
2023-05-15T20:51:25.189Z,78.16
2023-05-15T20:53:52.367Z,78.50
2023-05-15T20:56:19.567Z,79.17
2023-05-15T20:58:46.787Z,78.45
2023-05-15T21:01:14.193Z,78.05
2023-05-15T21:03:41.552Z,78.06
2023-05-15T21:06:09.443Z,77.79
2023-05-15T21:08:36.869Z,78.87
2023-05-15T21:11:03.963Z,78.88
2023-05-15T21:13:31.075Z,79.31
2023-05-15T21:15:58.132Z,79.46
2023-05-15T21:18:25.220Z,79.87
2023-05-15T21:20:53.036Z,79.27
2023-05-15T21:23:21.422Z,79.31
2023-05-15T21:25:48.554Z,79.42
2023-05-15T21:28:16.083Z,80.46
2023-05-15T21:30:43.299Z,80.38
2023-05-15T21:33:10.763Z,80.46
2023-05-15T21:35:38.357Z,79.75
2023-05-15T21:38:05.627Z,79.78
2023-05-15T21:40:32.821Z,80.59
2023-05-15T21:42:59.933Z,80.92
2023-05-15T21:45:27.150Z,81.24
2023-05-15T21:47:54.248Z,80.35
2023-05-15T21:50:21.349Z,80.69
2023-05-15T21:52:50.974Z,80.41
2023-05-15T21:55:19.013Z,80.34
2023-05-15T21:57:46.168Z,80.31
2023-05-15T22:00:14.183Z,80.80
2023-05-15T22:02:41.529Z,80.72
2023-05-15T22:05:09.105Z,80.79
2023-05-15T22:07:36.200Z,81.59
2023-05-15T22:10:03.624Z,80.97
2023-05-15T22:12:32.340Z,80.68
2023-05-15T22:15:00.071Z,80.64
2023-05-15T22:17:29.261Z,80.56
2023-05-15T22:20:07.023Z,81.36
2023-05-15T22:22:35.768Z,82.09
2023-05-15T22:25:03.015Z,82.50
2023-05-15T22:27:30.224Z,82.86
2023-05-15T22:29:57.420Z,83.18
2023-05-15T22:32:24.911Z,83.03
2023-05-15T22:34:52.216Z,83.01
2023-05-15T22:37:19.420Z,82.86
2023-05-15T22:39:46.579Z,83.29
2023-05-15T22:42:13.755Z,83.46
2023-05-15T22:44:40.841Z,84.08
2023-05-15T22:47:07.938Z,84.17
2023-05-15T22:49:35.072Z,84.31
2023-05-15T22:52:02.339Z,84.51
2023-05-15T22:54:29.491Z,84.68
2023-05-15T22:56:57.020Z,84.63
2023-05-15T22:59:24.176Z,84.66
2023-05-15T23:01:51.486Z,84.41
2023-05-15T23:04:18.960Z,84.28
2023-05-15T23:06:46.266Z,85.60
2023-05-15T23:09:13.435Z,84.87
2023-05-15T23:11:40.636Z,84.97
2023-05-15T23:14:08.514Z,85.61
2023-05-15T23:16:36.343Z,84.92
2023-05-15T23:19:04.023Z,84.95
2023-05-15T23:21:31.423Z,86.38
2023-05-15T23:23:58.577Z,84.83
2023-05-15T23:26:26.234Z,83.91
2023-05-15T23:28:53.423Z,83.05
2023-05-15T23:31:20.772Z,83.05
2023-05-15T23:33:48.055Z,82.37
2023-05-15T23:36:15.108Z,81.19
2023-05-15T23:38:42.276Z,81.07
2023-05-15T23:41:09.473Z,81.64
2023-05-15T23:43:36.807Z,81.20
2023-05-15T23:46:04.107Z,80.20
2023-05-15T23:48:31.855Z,80.54
2023-05-15T23:50:58.956Z,80.63
2023-05-15T23:53:25.994Z,81.86
2023-05-15T23:55:53.265Z,82.65
2023-05-15T23:58:21.561Z,82.62
